createdAt,value
2022-08-02T00:00:08.619Z,16.44
2022-08-02T00:01:08.669Z,16.42
2022-08-02T00:02:09.219Z,16.40
2022-08-02T00:03:08.586Z,16.39
2022-08-02T00:04:07.914Z,16.38
2022-08-02T00:05:07.913Z,16.37
2022-08-02T00:06:08.533Z,16.36
2022-08-02T00:07:09.374Z,16.35
2022-08-02T00:08:08.518Z,16.35
2022-08-02T00:09:07.834Z,16.34
2022-08-02T00:10:08.484Z,16.32
2022-08-02T00:11:07.865Z,16.32
2022-08-02T00:12:08.843Z,16.32
2022-08-02T00:13:08.436Z,16.31
2022-08-02T00:14:09.709Z,16.30
2022-08-02T00:15:07.750Z,16.28
2022-08-02T00:16:08.426Z,16.27
2022-08-02T00:17:07.736Z,16.25
2022-08-02T00:18:08.398Z,16.24
2022-08-02T00:19:08.385Z,16.24
2022-08-02T00:20:07.745Z,16.22
2022-08-02T00:21:08.368Z,16.21
2022-08-02T00:22:08.811Z,16.20
2022-08-02T00:23:08.338Z,16.19
2022-08-02T00:24:28.738Z,16.17
2022-08-02T00:25:11.111Z,16.16
2022-08-02T00:26:08.319Z,16.13
2022-08-02T00:27:09.583Z,16.11
2022-08-02T00:28:08.297Z,16.10
2022-08-02T00:29:07.602Z,16.08
2022-08-02T00:30:07.580Z,16.07
2022-08-02T00:31:07.659Z,16.06
2022-08-02T00:32:07.937Z,16.06
2022-08-02T00:33:07.626Z,16.05
2022-08-02T00:34:29.135Z,16.04
2022-08-02T00:35:10.555Z,16.04
2022-08-02T00:36:07.620Z,16.05
2022-08-02T00:37:08.189Z,16.04
2022-08-02T00:38:07.541Z,16.03
2022-08-02T00:39:07.527Z,16.03
2022-08-02T00:40:09.949Z,16.01
2022-08-02T00:41:07.525Z,16.00
2022-08-02T00:42:07.626Z,15.98
2022-08-02T00:43:07.562Z,15.97
2022-08-02T00:44:07.459Z,15.95
2022-08-02T00:45:08.112Z,15.94
2022-08-02T00:46:08.104Z,15.92
2022-08-02T00:47:07.453Z,15.91
2022-08-02T00:48:07.523Z,15.90
2022-08-02T00:49:07.456Z,15.89
2022-08-02T00:50:08.054Z,15.88
2022-08-02T00:51:08.044Z,15.87
2022-08-02T00:52:07.454Z,15.87
2022-08-02T00:53:08.028Z,15.84
2022-08-02T00:54:08.016Z,15.83
2022-08-02T00:55:07.362Z,15.83
2022-08-02T00:56:07.305Z,15.82
2022-08-02T00:57:07.328Z,15.81
2022-08-02T00:58:07.967Z,15.79
2022-08-02T00:59:07.287Z,15.80
2022-08-02T01:00:07.968Z,15.79
2022-08-02T01:01:07.411Z,15.78
2022-08-02T01:02:07.951Z,15.78
2022-08-02T01:03:07.456Z,15.76
2022-08-02T01:04:07.898Z,15.75
2022-08-02T01:05:07.913Z,15.74
2022-08-02T01:06:11.567Z,15.73
2022-08-02T01:07:12.351Z,15.72
2022-08-02T01:08:08.856Z,15.70
2022-08-02T01:09:07.846Z,15.69
2022-08-02T01:10:07.851Z,15.69
2022-08-02T01:11:07.402Z,15.67
2022-08-02T01:12:07.308Z,15.67
2022-08-02T01:13:07.218Z,15.67
2022-08-02T01:14:07.145Z,15.68
2022-08-02T01:15:07.791Z,15.67
2022-08-02T01:16:07.560Z,15.67
2022-08-02T01:17:07.130Z,15.68
2022-08-02T01:18:07.202Z,15.67
2022-08-02T01:19:07.091Z,15.67
2022-08-02T01:20:08.742Z,15.68
2022-08-02T01:21:07.041Z,15.68
2022-08-02T01:22:07.053Z,15.69
2022-08-02T01:23:07.027Z,15.69
2022-08-02T01:24:07.142Z,15.70
2022-08-02T01:25:07.682Z,15.69
2022-08-02T01:26:07.672Z,15.69
2022-08-02T01:27:07.654Z,15.69
2022-08-02T01:28:07.652Z,15.69
2022-08-02T01:29:07.037Z,15.69
2022-08-02T01:30:07.005Z,15.68
2022-08-02T01:31:07.710Z,15.67
2022-08-02T01:32:07.699Z,15.67
2022-08-02T01:33:06.978Z,15.67
2022-08-02T01:34:07.608Z,15.66
2022-08-02T01:35:07.566Z,15.66
2022-08-02T01:36:07.557Z,15.66
2022-08-02T01:37:07.538Z,15.66
2022-08-02T01:38:07.535Z,15.65
2022-08-02T01:39:07.520Z,15.65
2022-08-02T01:40:07.800Z,15.65
2022-08-02T01:41:06.837Z,15.65
2022-08-02T01:42:06.854Z,15.65
2022-08-02T01:43:06.819Z,15.65
2022-08-02T01:44:08.458Z,15.65
2022-08-02T01:45:07.480Z,15.64
2022-08-02T01:46:07.452Z,15.64
2022-08-02T01:47:07.437Z,15.64
2022-08-02T01:48:06.848Z,15.64
2022-08-02T01:49:09.431Z,15.64
2022-08-02T01:50:06.780Z,15.63
2022-08-02T01:51:07.398Z,15.62
2022-08-02T01:52:07.807Z,15.61
2022-08-02T01:53:07.370Z,15.60
2022-08-02T01:54:06.721Z,15.59
2022-08-02T01:55:06.842Z,15.59
2022-08-02T01:56:07.349Z,15.58
2022-08-02T01:57:06.679Z,15.57
2022-08-02T01:58:07.321Z,15.56
2022-08-02T01:59:07.304Z,15.55
2022-08-02T02:00:06.644Z,15.54
2022-08-02T02:01:07.278Z,15.53
2022-08-02T02:02:07.272Z,15.52
2022-08-02T02:03:07.253Z,15.51
2022-08-02T02:04:07.252Z,15.52
2022-08-02T02:05:06.573Z,15.51
2022-08-02T02:06:07.202Z,15.50
2022-08-02T02:07:06.533Z,15.48
2022-08-02T02:08:07.203Z,15.46
2022-08-02T02:09:07.193Z,15.44
2022-08-02T02:10:07.183Z,15.41
2022-08-02T02:12:10.090Z,15.39
2022-08-02T02:12:14.285Z,15.37
2022-08-02T02:13:08.157Z,15.35
2022-08-02T02:14:07.097Z,15.33
2022-08-02T02:15:06.553Z,15.31
2022-08-02T02:16:07.125Z,15.29
2022-08-02T02:17:06.430Z,15.28
2022-08-02T02:18:12.987Z,15.25
2022-08-02T02:19:08.078Z,15.23
2022-08-02T02:20:07.088Z,15.20
2022-08-02T02:21:06.569Z,15.18
2022-08-02T02:22:06.401Z,15.17
2022-08-02T02:23:07.038Z,15.13
2022-08-02T02:24:09.097Z,15.11
2022-08-02T02:25:06.969Z,15.09
2022-08-02T02:26:06.367Z,15.06
2022-08-02T02:27:06.996Z,15.04
2022-08-02T02:28:07.762Z,15.01
2022-08-02T02:29:06.969Z,14.98
2022-08-02T02:30:06.326Z,14.95
2022-08-02T02:31:08.728Z,14.93
2022-08-02T02:32:06.950Z,14.90
2022-08-02T02:33:06.929Z,14.88
2022-08-02T02:34:06.998Z,14.84
2022-08-02T02:35:06.380Z,14.82
2022-08-02T02:36:06.921Z,14.80
2022-08-02T02:37:06.909Z,14.77
2022-08-02T02:38:06.222Z,14.74
2022-08-02T02:39:10.230Z,14.72
2022-08-02T02:40:07.203Z,14.71
2022-08-02T02:41:06.164Z,14.70
2022-08-02T02:42:07.027Z,14.68
2022-08-02T02:43:06.835Z,14.67
2022-08-02T02:44:06.820Z,14.66
2022-08-02T02:45:06.809Z,14.64
2022-08-02T02:46:06.786Z,14.63
2022-08-02T02:47:06.115Z,14.62
2022-08-02T02:48:06.786Z,14.61
2022-08-02T02:49:06.784Z,14.60
2022-08-02T02:50:06.743Z,14.59
2022-08-02T02:51:08.343Z,14.57
2022-08-02T02:52:07.093Z,14.55
2022-08-02T02:53:06.723Z,14.54
2022-08-02T02:54:30.501Z,14.52
2022-08-02T02:55:07.137Z,14.51
2022-08-02T02:56:06.697Z,14.50
2022-08-02T02:57:06.718Z,14.49
2022-08-02T02:58:06.655Z,14.47
2022-08-02T02:59:05.974Z,14.45
2022-08-02T03:00:06.646Z,14.44
2022-08-02T03:01:06.069Z,14.42
2022-08-02T03:02:06.624Z,14.41
2022-08-02T03:03:06.615Z,14.39
2022-08-02T03:04:06.056Z,14.38
2022-08-02T03:05:06.588Z,14.37
2022-08-02T03:06:14.923Z,14.37
2022-08-02T03:07:06.875Z,14.36
2022-08-02T03:08:06.558Z,14.35
2022-08-02T03:09:06.540Z,14.35
2022-08-02T03:10:08.338Z,14.35
2022-08-02T03:11:05.865Z,14.35
2022-08-02T03:12:06.518Z,14.35
2022-08-02T03:13:06.516Z,14.34
2022-08-02T03:14:05.860Z,14.34
2022-08-02T03:15:05.870Z,14.33
2022-08-02T03:16:06.699Z,14.32
2022-08-02T03:17:06.476Z,14.32
2022-08-02T03:18:05.828Z,14.30
2022-08-02T03:19:05.811Z,14.29
2022-08-02T03:20:06.051Z,14.27
2022-08-02T03:21:06.246Z,14.26
2022-08-02T03:22:06.684Z,14.25
2022-08-02T03:23:05.753Z,14.24
2022-08-02T03:24:06.383Z,14.22
2022-08-02T03:25:06.371Z,14.21
2022-08-02T03:26:06.361Z,14.21
2022-08-02T03:27:05.676Z,14.18
2022-08-02T03:28:06.334Z,14.16
2022-08-02T03:29:10.059Z,14.14
2022-08-02T03:30:07.078Z,14.11
2022-08-02T03:31:06.303Z,14.09
2022-08-02T03:32:06.302Z,14.08
2022-08-02T03:33:05.658Z,14.05
2022-08-02T03:34:06.285Z,14.05
2022-08-02T03:35:06.264Z,14.02
2022-08-02T03:36:06.254Z,14.01
2022-08-02T03:37:05.594Z,13.99
2022-08-02T03:38:06.325Z,13.97
2022-08-02T03:39:05.576Z,13.96
2022-08-02T03:40:06.209Z,13.94
2022-08-02T03:41:06.209Z,13.92
2022-08-02T03:42:06.185Z,13.92
2022-08-02T03:43:06.195Z,13.90
2022-08-02T03:44:06.166Z,13.90
2022-08-02T03:45:08.717Z,13.89
2022-08-02T03:46:05.510Z,13.89
2022-08-02T03:47:05.474Z,13.89
2022-08-02T03:48:30.508Z,13.89
2022-08-02T03:49:07.140Z,13.89
2022-08-02T03:50:05.418Z,13.89
2022-08-02T03:51:05.432Z,13.89
2022-08-02T03:52:05.397Z,13.88
2022-08-02T03:53:06.088Z,13.88
2022-08-02T03:54:07.828Z,13.88
2022-08-02T03:55:07.928Z,13.89
2022-08-02T03:56:05.609Z,13.90
2022-08-02T03:57:06.098Z,13.89
2022-08-02T03:58:06.242Z,13.91
2022-08-02T03:59:06.033Z,13.92
2022-08-02T04:00:05.313Z,13.93
2022-08-02T04:01:05.419Z,13.94
2022-08-02T04:02:05.973Z,13.95
2022-08-02T04:03:05.975Z,13.96
2022-08-02T04:04:05.312Z,13.97
2022-08-02T04:05:05.931Z,13.98
2022-08-02T04:06:05.301Z,13.99
2022-08-02T04:07:07.241Z,14.00
2022-08-02T04:08:36.847Z,14.01
2022-08-02T04:09:06.688Z,14.02
2022-08-02T04:10:05.988Z,14.03
2022-08-02T04:11:05.202Z,14.06
2022-08-02T04:12:05.173Z,14.07
2022-08-02T04:13:05.203Z,14.06
2022-08-02T04:14:05.188Z,14.08
2022-08-02T04:15:05.823Z,14.09
2022-08-02T04:16:05.814Z,14.13
2022-08-02T04:17:05.808Z,14.11
2022-08-02T04:18:05.142Z,14.13
2022-08-02T04:19:06.428Z,14.16
2022-08-02T04:20:05.135Z,14.19
2022-08-02T04:21:05.757Z,14.23
2022-08-02T04:22:05.766Z,14.28
2022-08-02T04:23:07.008Z,14.31
2022-08-02T04:24:05.054Z,14.36
2022-08-02T04:25:05.128Z,14.40
2022-08-02T04:26:07.880Z,14.41
2022-08-02T04:27:19.353Z,14.43
2022-08-02T04:28:17.027Z,14.46
2022-08-02T04:29:06.693Z,14.50
2022-08-02T04:30:04.978Z,14.52
2022-08-02T04:31:05.016Z,14.55
2022-08-02T04:32:04.969Z,14.59
2022-08-02T04:33:05.120Z,14.63
2022-08-02T04:34:05.627Z,14.72
2022-08-02T04:35:21.105Z,14.88
2022-08-02T04:36:05.968Z,15.03
2022-08-02T04:37:05.600Z,15.18
2022-08-02T04:38:10.102Z,15.32
2022-08-02T04:39:04.906Z,15.46
2022-08-02T04:40:04.872Z,15.58
2022-08-02T04:41:04.889Z,15.71
2022-08-02T04:42:04.880Z,15.85
2022-08-02T04:43:04.858Z,15.99
2022-08-02T04:44:06.287Z,16.11
2022-08-02T04:45:05.500Z,16.23
2022-08-02T04:46:04.889Z,16.34
2022-08-02T04:47:06.878Z,16.44
2022-08-02T04:48:06.289Z,16.55
2022-08-02T04:49:05.542Z,16.64
2022-08-02T04:50:05.450Z,16.72
2022-08-02T04:51:05.432Z,16.80
2022-08-02T04:52:04.754Z,16.87
2022-08-02T04:53:05.424Z,16.94
2022-08-02T04:54:06.437Z,17.00
2022-08-02T04:55:06.166Z,17.03
2022-08-02T04:56:04.702Z,17.06
2022-08-02T04:57:05.506Z,17.10
2022-08-02T04:58:23.826Z,17.14
2022-08-02T04:59:07.143Z,17.18
2022-08-02T05:00:04.659Z,17.22
2022-08-02T05:01:05.373Z,17.23
2022-08-02T05:02:05.482Z,17.26
2022-08-02T05:03:05.315Z,17.29
2022-08-02T05:04:05.305Z,17.31
2022-08-02T05:05:09.884Z,17.33
2022-08-02T05:06:18.810Z,17.37
2022-08-02T05:07:07.521Z,17.40
2022-08-02T05:08:04.575Z,17.43
2022-08-02T05:09:05.256Z,17.50
2022-08-02T05:10:04.568Z,17.56
2022-08-02T05:11:04.664Z,17.63
2022-08-02T05:12:05.204Z,17.71
2022-08-02T05:13:05.200Z,17.79
2022-08-02T05:14:04.545Z,17.87
2022-08-02T05:15:04.508Z,17.95
2022-08-02T05:16:05.160Z,18.02
2022-08-02T05:17:04.698Z,18.10
2022-08-02T05:18:05.149Z,18.15
2022-08-02T05:19:05.137Z,18.25
2022-08-02T05:20:05.148Z,18.35
2022-08-02T05:21:05.129Z,18.47
2022-08-02T05:22:05.101Z,18.59
2022-08-02T05:23:04.434Z,18.72
2022-08-02T05:24:04.409Z,18.81
2022-08-02T05:25:05.071Z,18.91
2022-08-02T05:26:04.391Z,19.02
2022-08-02T05:27:16.932Z,19.12
2022-08-02T05:28:11.297Z,19.24
2022-08-02T05:29:06.021Z,19.34
2022-08-02T05:30:05.016Z,19.44
2022-08-02T05:31:05.007Z,19.53
2022-08-02T05:32:05.503Z,19.62
2022-08-02T05:33:04.307Z,19.72
2022-08-02T05:34:07.577Z,19.80
2022-08-02T05:35:07.205Z,19.90
2022-08-02T05:36:04.954Z,19.94
2022-08-02T05:37:09.666Z,19.98
2022-08-02T05:38:10.195Z,20.02
2022-08-02T05:39:06.175Z,20.09
2022-08-02T05:40:05.273Z,20.14
2022-08-02T05:41:05.233Z,20.20
2022-08-02T05:42:04.885Z,20.24
2022-08-02T05:43:04.878Z,20.30
2022-08-02T05:44:04.255Z,20.44
2022-08-02T05:45:04.172Z,20.57
2022-08-02T05:46:04.836Z,20.73
2022-08-02T05:47:04.837Z,21.00
2022-08-02T05:48:04.826Z,21.37
2022-08-02T05:49:04.142Z,21.81
2022-08-02T05:50:04.128Z,22.11
2022-08-02T05:51:04.788Z,23.02
2022-08-02T05:52:06.110Z,23.78
2022-08-02T05:53:04.119Z,24.27
2022-08-02T05:54:04.759Z,24.78
2022-08-02T05:55:04.740Z,25.44
2022-08-02T05:56:08.364Z,26.03
2022-08-02T05:57:04.032Z,26.56
2022-08-02T05:58:04.079Z,27.05
2022-08-02T05:59:04.024Z,27.59
2022-08-02T06:00:04.686Z,28.08
2022-08-02T06:01:04.941Z,28.53
2022-08-02T06:02:04.049Z,28.95
2022-08-02T06:03:04.659Z,29.30
2022-08-02T06:04:04.641Z,29.62
2022-08-02T06:05:04.924Z,29.94
2022-08-02T06:06:04.123Z,30.30
2022-08-02T06:07:03.951Z,30.64
2022-08-02T06:08:04.616Z,30.96
2022-08-02T06:09:03.924Z,31.23
2022-08-02T06:10:04.024Z,31.47
2022-08-02T06:11:04.584Z,31.74
2022-08-02T06:12:03.925Z,32.00
2022-08-02T06:13:03.865Z,32.21
2022-08-02T06:14:03.894Z,32.43
2022-08-02T06:15:03.877Z,32.67
2022-08-02T06:16:03.914Z,32.90
2022-08-02T06:17:05.949Z,32.91
2022-08-02T06:18:03.899Z,32.50
2022-08-02T06:19:03.833Z,32.69
2022-08-02T06:20:03.848Z,33.10
2022-08-02T06:22:31.471Z,33.19
2022-08-02T06:22:34.021Z,33.44
2022-08-02T06:23:08.753Z,33.01
2022-08-02T06:24:03.811Z,33.06
2022-08-02T06:25:04.440Z,33.31
2022-08-02T06:26:03.775Z,33.13
2022-08-02T06:27:03.720Z,32.87
2022-08-02T06:28:04.379Z,33.44
2022-08-02T06:29:06.162Z,33.86
2022-08-02T06:30:03.689Z,34.25
2022-08-02T06:31:04.361Z,34.63
2022-08-02T06:32:04.352Z,34.93
2022-08-02T06:33:03.833Z,34.97
2022-08-02T06:34:05.112Z,35.31
2022-08-02T06:35:04.318Z,35.51
2022-08-02T06:36:03.644Z,35.65
2022-08-02T06:37:04.306Z,35.75
2022-08-02T06:38:03.615Z,35.87
2022-08-02T06:39:04.275Z,35.96
2022-08-02T06:40:04.275Z,36.14
2022-08-02T06:41:03.571Z,36.41
2022-08-02T06:42:03.583Z,36.60
2022-08-02T06:43:04.230Z,36.71
2022-08-02T06:44:25.270Z,36.85
2022-08-02T06:45:05.987Z,37.04
2022-08-02T06:47:02.036Z,37.28
2022-08-02T06:47:11.332Z,37.55
2022-08-02T06:48:05.178Z,37.79
2022-08-02T06:49:04.224Z,37.94
2022-08-02T06:50:04.214Z,38.02
2022-08-02T06:51:03.493Z,38.07
2022-08-02T06:52:04.130Z,38.12
2022-08-02T06:53:04.122Z,38.24
2022-08-02T06:54:03.469Z,38.47
2022-08-02T06:55:04.113Z,38.74
2022-08-02T06:56:04.870Z,39.05
2022-08-02T06:57:03.452Z,39.31
2022-08-02T06:58:04.080Z,39.58
2022-08-02T06:59:06.090Z,39.87
2022-08-02T07:00:04.055Z,40.10
2022-08-02T07:01:04.063Z,40.37
2022-08-02T07:02:03.377Z,40.49
2022-08-02T07:03:03.372Z,40.38
2022-08-02T07:04:03.326Z,40.37
2022-08-02T07:05:03.306Z,40.40
2022-08-02T07:06:03.296Z,40.15
2022-08-02T07:07:04.726Z,40.22
2022-08-02T07:08:03.977Z,40.12
2022-08-02T07:09:20.929Z,40.15
2022-08-02T07:10:04.270Z,40.06
2022-08-02T07:11:03.256Z,39.66
2022-08-02T07:12:03.238Z,39.53
2022-08-02T07:13:03.287Z,39.76
2022-08-02T07:14:03.250Z,40.21
2022-08-02T07:15:03.879Z,40.57
2022-08-02T07:16:03.199Z,40.96
2022-08-02T07:17:03.198Z,41.38
2022-08-02T07:18:03.181Z,41.77
2022-08-02T07:19:03.860Z,42.09
2022-08-02T07:20:03.841Z,42.35
2022-08-02T07:21:03.896Z,42.46
2022-08-02T07:22:03.823Z,42.51
2022-08-02T07:23:03.821Z,42.61
2022-08-02T07:24:03.792Z,42.58
2022-08-02T07:25:03.797Z,42.41
2022-08-02T07:26:05.795Z,42.50
2022-08-02T07:27:12.221Z,42.68
2022-08-02T07:28:04.065Z,42.77
2022-08-02T07:29:04.526Z,42.64
2022-08-02T07:30:03.065Z,42.79
2022-08-02T07:31:03.074Z,42.88
2022-08-02T07:32:03.065Z,42.86
2022-08-02T07:33:03.708Z,42.74
2022-08-02T07:34:03.695Z,42.75
2022-08-02T07:35:06.868Z,42.79
2022-08-02T07:36:04.831Z,42.90
2022-08-02T07:37:03.677Z,42.86
2022-08-02T07:38:03.660Z,42.63
2022-08-02T07:39:03.655Z,42.47
2022-08-02T07:40:04.685Z,42.43
2022-08-02T07:41:02.939Z,42.49
2022-08-02T07:42:02.948Z,42.69
2022-08-02T07:43:04.306Z,42.84
2022-08-02T07:44:03.591Z,43.05
2022-08-02T07:45:03.582Z,43.19
2022-08-02T07:46:02.892Z,43.34
2022-08-02T07:47:02.881Z,43.38
2022-08-02T07:48:02.896Z,43.24
2022-08-02T07:49:03.627Z,43.30
2022-08-02T07:50:03.535Z,43.43
2022-08-02T07:51:04.871Z,43.61
2022-08-02T07:52:02.825Z,43.76
2022-08-02T07:53:03.496Z,43.92
2022-08-02T07:54:04.772Z,44.02
2022-08-02T07:55:04.737Z,44.13
2022-08-02T07:56:03.473Z,44.26
2022-08-02T07:57:03.533Z,44.40
2022-08-02T07:58:02.770Z,44.43
2022-08-02T07:59:03.448Z,44.34
2022-08-02T08:00:03.526Z,44.07
2022-08-02T08:01:02.839Z,44.34
2022-08-02T08:02:04.213Z,44.57
2022-08-02T08:03:02.767Z,44.79
2022-08-02T08:04:03.387Z,45.08
2022-08-02T08:05:03.377Z,44.67
2022-08-02T08:06:02.678Z,45.07
2022-08-02T08:07:03.363Z,45.34
2022-08-02T08:08:03.354Z,45.53
2022-08-02T08:09:02.678Z,45.70
2022-08-02T08:10:03.344Z,45.81
2022-08-02T08:11:03.341Z,45.81
2022-08-02T08:12:03.305Z,45.78
2022-08-02T08:13:04.060Z,45.48
2022-08-02T08:14:02.592Z,45.32
2022-08-02T08:15:02.653Z,45.33
2022-08-02T08:16:02.607Z,45.29
2022-08-02T08:17:03.253Z,44.94
2022-08-02T08:18:02.555Z,44.36
2022-08-02T08:19:03.247Z,43.39
2022-08-02T08:20:03.351Z,42.28
2022-08-02T08:21:03.195Z,41.25
2022-08-02T08:22:03.197Z,40.33
2022-08-02T08:23:03.196Z,39.68
2022-08-02T08:24:03.938Z,39.94
2022-08-02T08:25:03.201Z,39.96
2022-08-02T08:26:02.468Z,40.60
2022-08-02T08:27:03.139Z,41.21
2022-08-02T08:28:03.129Z,41.49
2022-08-02T08:29:03.131Z,41.19
2022-08-02T08:30:03.153Z,41.39
2022-08-02T08:31:03.109Z,41.27
2022-08-02T08:32:03.108Z,41.28
2022-08-02T08:33:04.862Z,41.46
2022-08-02T08:34:04.301Z,41.53
2022-08-02T08:35:03.822Z,41.60
2022-08-02T08:36:02.714Z,41.64
2022-08-02T08:37:02.382Z,41.90
2022-08-02T08:38:07.222Z,42.15
2022-08-02T08:39:03.404Z,42.38
2022-08-02T08:40:03.035Z,42.44
2022-08-02T08:41:03.016Z,42.04
2022-08-02T08:42:03.017Z,41.84
2022-08-02T08:43:02.293Z,41.76
2022-08-02T08:44:02.296Z,41.76
2022-08-02T08:45:02.954Z,41.34
2022-08-02T08:46:02.264Z,40.73
2022-08-02T08:47:02.947Z,40.24
2022-08-02T08:48:02.245Z,39.67
2022-08-02T08:49:02.277Z,39.14
2022-08-02T08:50:02.239Z,38.62
2022-08-02T08:51:02.248Z,38.21
2022-08-02T08:52:02.890Z,37.83
2022-08-02T08:53:04.136Z,37.45
2022-08-02T08:54:02.173Z,37.10
2022-08-02T08:55:02.171Z,36.89
2022-08-02T08:56:02.831Z,36.81
2022-08-02T08:57:02.177Z,36.85
2022-08-02T08:58:02.822Z,36.77
2022-08-02T08:59:02.120Z,37.09
2022-08-02T09:00:02.821Z,37.50
2022-08-02T09:01:02.886Z,37.82
2022-08-02T09:02:16.833Z,38.09
2022-08-02T09:03:03.226Z,38.39
2022-08-02T09:04:02.083Z,38.71
2022-08-02T09:05:02.117Z,38.98
2022-08-02T09:06:02.061Z,39.20
2022-08-02T09:07:02.113Z,39.32
2022-08-02T09:08:03.511Z,39.43
2022-08-02T09:09:02.078Z,39.55
2022-08-02T09:10:02.708Z,39.61
2022-08-02T09:11:02.705Z,39.67
2022-08-02T09:12:02.675Z,39.74
2022-08-02T09:13:02.678Z,39.81
2022-08-02T09:14:02.987Z,39.76
2022-08-02T09:15:02.650Z,39.81
2022-08-02T09:16:12.314Z,39.98
2022-08-02T09:17:02.939Z,39.89
2022-08-02T09:18:01.950Z,39.73
2022-08-02T09:19:03.371Z,39.60
2022-08-02T09:20:01.938Z,39.67
2022-08-02T09:21:01.930Z,39.77
2022-08-02T09:22:02.572Z,39.93
2022-08-02T09:23:02.567Z,40.12
2022-08-02T09:24:02.213Z,40.19
2022-08-02T09:25:02.542Z,40.30
2022-08-02T09:26:07.017Z,40.35
2022-08-02T09:27:02.850Z,40.33
2022-08-02T09:28:01.862Z,40.32
2022-08-02T09:29:02.508Z,40.31
2022-08-02T09:30:12.452Z,40.32
2022-08-02T09:31:03.491Z,40.31
2022-08-02T09:32:02.466Z,40.30
2022-08-02T09:33:05.740Z,40.26
2022-08-02T09:34:01.793Z,40.26
2022-08-02T09:35:02.446Z,40.26
2022-08-02T09:36:06.160Z,40.28
2022-08-02T09:37:02.767Z,40.25
2022-08-02T09:38:02.416Z,40.19
2022-08-02T09:39:01.791Z,40.15
2022-08-02T09:40:01.724Z,40.11
2022-08-02T09:41:03.619Z,40.00
2022-08-02T09:42:02.368Z,39.95
2022-08-02T09:43:02.349Z,39.91
2022-08-02T09:44:05.433Z,39.87
2022-08-02T09:45:03.569Z,39.82
2022-08-02T09:46:02.331Z,39.80
2022-08-02T09:47:01.633Z,39.83
2022-08-02T09:48:01.631Z,39.89
2022-08-02T09:49:03.622Z,39.95
2022-08-02T09:50:02.831Z,40.06
2022-08-02T09:51:02.295Z,40.17
2022-08-02T09:52:02.262Z,40.24
2022-08-02T09:53:02.530Z,40.36
2022-08-02T09:54:09.515Z,40.48
2022-08-02T09:55:04.124Z,40.58
2022-08-02T09:56:01.546Z,40.54
2022-08-02T09:57:02.236Z,40.47
2022-08-02T09:58:02.219Z,40.58
2022-08-02T09:59:02.206Z,40.65
2022-08-02T10:00:02.189Z,40.76
2022-08-02T10:01:01.608Z,40.83
2022-08-02T10:02:04.032Z,40.81
2022-08-02T10:03:02.418Z,40.78
2022-08-02T10:04:02.145Z,40.80
2022-08-02T10:05:02.138Z,40.88
2022-08-02T10:06:02.469Z,40.97
2022-08-02T10:07:02.130Z,41.01
2022-08-02T10:08:02.110Z,41.09
2022-08-02T10:09:02.147Z,41.18
2022-08-02T10:10:02.347Z,41.26
2022-08-02T10:11:02.085Z,41.36
2022-08-02T10:12:03.445Z,41.46
2022-08-02T10:13:02.044Z,41.61
2022-08-02T10:14:02.055Z,41.83
2022-08-02T10:15:01.372Z,42.16
2022-08-02T10:16:03.809Z,42.46
2022-08-02T10:17:02.013Z,42.77
2022-08-02T10:18:12.897Z,42.94
2022-08-02T10:19:02.973Z,43.09
2022-08-02T10:20:04.795Z,43.21
2022-08-02T10:21:01.312Z,43.40
2022-08-02T10:22:01.288Z,43.59
2022-08-02T10:23:03.728Z,43.80
2022-08-02T10:24:01.301Z,43.99
2022-08-02T10:25:03.089Z,44.10
2022-08-02T10:26:01.956Z,44.27
2022-08-02T10:27:01.911Z,44.54
2022-08-02T10:28:05.515Z,44.84
2022-08-02T10:29:01.208Z,45.06
2022-08-02T10:30:01.869Z,45.29
2022-08-02T10:31:01.947Z,45.55
2022-08-02T10:32:01.857Z,45.79
2022-08-02T10:33:01.179Z,46.00
2022-08-02T10:34:01.837Z,46.07
2022-08-02T10:35:02.668Z,45.96
2022-08-02T10:36:04.529Z,45.60
2022-08-02T10:37:02.586Z,45.14
2022-08-02T10:38:01.840Z,44.57
2022-08-02T10:39:03.551Z,44.70
2022-08-02T10:40:03.541Z,45.02
2022-08-02T10:41:01.095Z,45.36
2022-08-02T10:42:01.164Z,45.54
2022-08-02T10:43:01.742Z,45.44
2022-08-02T10:44:01.737Z,45.28
2022-08-02T10:45:01.723Z,45.05
2022-08-02T10:46:01.735Z,44.72
2022-08-02T10:47:01.160Z,44.38
2022-08-02T10:48:01.994Z,43.97
2022-08-02T10:49:13.699Z,43.38
2022-08-02T10:50:03.939Z,41.86
2022-08-02T10:51:01.675Z,40.61
2022-08-02T10:52:01.659Z,40.41
2022-08-02T10:53:03.409Z,39.90
2022-08-02T10:54:01.617Z,39.11
2022-08-02T10:55:01.617Z,38.20
2022-08-02T10:56:01.621Z,37.41
2022-08-02T10:57:01.765Z,36.86
2022-08-02T10:58:01.850Z,36.44
2022-08-02T10:59:01.580Z,36.11
2022-08-02T11:00:01.581Z,35.88
2022-08-02T11:01:01.610Z,35.64
2022-08-02T11:02:01.713Z,35.37
2022-08-02T11:03:00.852Z,35.16
2022-08-02T11:04:07.046Z,35.10
2022-08-02T11:05:02.521Z,35.03
2022-08-02T11:06:01.510Z,34.96
2022-08-02T11:07:01.501Z,34.87
2022-08-02T11:08:01.495Z,34.79
2022-08-02T11:09:01.482Z,34.70
2022-08-02T11:10:01.514Z,34.61
2022-08-02T11:11:01.480Z,34.53
2022-08-02T11:12:01.457Z,34.47
2022-08-02T11:13:03.196Z,34.39
2022-08-02T11:14:03.205Z,34.39
2022-08-02T11:15:01.418Z,34.37
2022-08-02T11:16:01.472Z,34.40
2022-08-02T11:17:01.385Z,34.44
2022-08-02T11:18:01.387Z,34.46
2022-08-02T11:19:01.377Z,34.44
2022-08-02T11:20:01.377Z,34.40
2022-08-02T11:21:01.374Z,34.37
2022-08-02T11:22:00.658Z,34.36
2022-08-02T11:23:01.338Z,34.38
2022-08-02T11:24:03.070Z,34.38
2022-08-02T11:25:03.066Z,34.39
2022-08-02T11:26:07.568Z,34.44
2022-08-02T11:27:03.521Z,34.47
2022-08-02T11:28:01.283Z,34.52
2022-08-02T11:29:01.281Z,34.59
2022-08-02T11:30:00.592Z,34.62
2022-08-02T11:31:02.873Z,34.60
2022-08-02T11:32:01.255Z,34.59
2022-08-02T11:33:01.224Z,34.57
2022-08-02T11:34:00.570Z,34.62
2022-08-02T11:35:00.580Z,34.67
2022-08-02T11:36:00.552Z,34.68
2022-08-02T11:37:00.505Z,34.70
2022-08-02T11:38:01.186Z,34.68
2022-08-02T11:39:00.538Z,34.64
2022-08-02T11:40:01.165Z,34.62
2022-08-02T11:41:01.145Z,34.58
2022-08-02T11:42:02.888Z,34.47
2022-08-02T11:43:02.900Z,34.35
2022-08-02T11:44:00.439Z,34.26
2022-08-02T11:45:01.117Z,34.19
2022-08-02T11:46:01.098Z,34.13
2022-08-02T11:47:00.477Z,34.09
2022-08-02T11:48:01.077Z,34.06
2022-08-02T11:49:02.846Z,34.04
2022-08-02T11:50:02.321Z,33.98
2022-08-02T11:51:01.309Z,33.90
2022-08-02T11:52:00.377Z,33.84
2022-08-02T11:53:01.430Z,33.84
2022-08-02T11:54:01.022Z,33.84
2022-08-02T11:55:00.332Z,33.85
2022-08-02T11:56:01.017Z,33.88
2022-08-02T11:57:00.303Z,33.92
2022-08-02T11:58:03.547Z,33.94
2022-08-02T11:59:00.945Z,33.93
2022-08-02T12:00:00.953Z,33.92
2022-08-02T12:01:00.293Z,33.89
2022-08-02T12:02:00.925Z,33.85
2022-08-02T12:03:00.322Z,33.82
2022-08-02T12:04:03.096Z,33.80
2022-08-02T12:05:00.286Z,33.77
2022-08-02T12:06:06.031Z,33.77
2022-08-02T12:07:03.148Z,33.78
2022-08-02T12:08:00.197Z,33.78
2022-08-02T12:09:00.864Z,33.79
2022-08-02T12:10:00.846Z,33.79
2022-08-02T12:11:00.863Z,33.79
2022-08-02T12:12:00.828Z,33.76
2022-08-02T12:13:00.132Z,33.75
2022-08-02T12:14:00.128Z,33.74
2022-08-02T12:15:01.070Z,33.70
2022-08-02T12:16:00.106Z,33.70
2022-08-02T12:17:00.220Z,33.69
2022-08-02T12:18:00.752Z,33.69
2022-08-02T12:19:00.090Z,33.70
2022-08-02T12:20:00.743Z,33.70
2022-08-02T12:21:00.076Z,33.71
2022-08-02T12:22:00.034Z,33.74
2022-08-02T12:23:00.066Z,33.76
2022-08-02T12:24:01.384Z,33.76
2022-08-02T12:25:00.683Z,33.77
2022-08-02T12:26:00.676Z,33.80
2022-08-02T12:27:01.923Z,33.83
2022-08-02T12:28:00.665Z,33.85
2022-08-02T12:29:00.016Z,33.86
2022-08-02T12:30:00.647Z,33.87
2022-08-02T12:30:59.957Z,33.92
2022-08-02T12:31:59.993Z,33.96
2022-08-02T12:32:59.926Z,34.02
2022-08-02T12:33:59.967Z,34.06
2022-08-02T12:34:59.936Z,34.10
2022-08-02T12:36:00.570Z,34.12
2022-08-02T12:36:59.880Z,34.12
2022-08-02T12:38:00.557Z,34.13
2022-08-02T12:39:00.548Z,34.12
2022-08-02T12:40:00.544Z,34.11
2022-08-02T12:41:00.516Z,34.10
2022-08-02T12:42:02.280Z,34.09
2022-08-02T12:43:00.504Z,34.09
2022-08-02T12:43:59.852Z,34.10
2022-08-02T12:45:00.527Z,34.12
2022-08-02T12:45:59.811Z,34.13
2022-08-02T12:47:00.463Z,34.14
2022-08-02T12:48:01.536Z,34.13
2022-08-02T12:49:17.306Z,34.12
2022-08-02T12:50:00.824Z,34.11
2022-08-02T12:50:59.733Z,34.10
2022-08-02T12:52:03.433Z,34.08